Time;durP1;ratioP1;P1;durP2;ratioP2;P2;SDS_P1;SDS_P2;PMS_P1;PMS_P2;Temp;Humidity;BMP_temperature;BMP_pressure;BME280_temperature;BME280_humidity;BME280_pressure;Samples;Min_cycle;Max_cycle;Signal;HPM_P1;HPM_P2
2023/02/01 00:00:27;;;;;;;13.30;3.30;;;;;;;5.03;78.54;100764.64;108561;1261;60042;-76
2023/02/01 00:02:54;;;;;;;13.70;2.70;;;;;;;5.03;78.64;100749.75;108527;1261;73215;-76
2023/02/01 00:05:21;;;;;;;18.00;3.80;;;;;;;5.03;78.60;100753.42;108546;1262;72409;-77
2023/02/01 00:07:48;;;;;;;16.30;3.10;;;;;;;5.02;78.54;100751.76;108635;1261;72367;-76
2023/02/01 00:10:16;;;;;;;16.00;3.00;;;;;;;5.03;78.79;100751.16;108555;1261;62052;-76
2023/02/01 00:12:43;;;;;;;15.90;3.60;;;;;;;5.01;78.88;100758.71;108457;1261;60208;-76
2023/02/01 00:15:10;;;;;;;18.00;3.50;;;;;;;4.99;78.60;100758.33;108629;1261;74789;-76
2023/02/01 00:17:37;;;;;;;13.60;2.80;;;;;;;4.99;78.80;100752.52;108548;1262;70015;-76
2023/02/01 00:20:04;;;;;;;17.10;3.50;;;;;;;4.95;79.07;100746.81;108563;1265;73763;-76
2023/02/01 00:22:31;;;;;;;19.50;3.30;;;;;;;4.95;78.64;100751.55;108622;1262;59817;-76
2023/02/01 00:24:58;;;;;;;16.30;3.00;;;;;;;4.96;78.80;100742.08;108608;1260;61722;-77
2023/02/01 00:27:25;;;;;;;22.90;3.80;;;;;;;4.95;78.84;100736.10;108506;1261;73101;-76
2023/02/01 00:29:54;;;;;;;14.40;3.10;;;;;;;4.94;78.81;100731.79;108588;1266;70261;-76
2023/02/01 00:32:21;;;;;;;11.60;2.60;;;;;;;4.93;78.93;100736.08;108563;1262;71560;-76
2023/02/01 00:34:48;;;;;;;19.40;3.50;;;;;;;4.91;78.99;100742.19;108488;1261;60897;-76
2023/02/01 00:37:15;;;;;;;15.40;3.30;;;;;;;4.92;78.74;100738.09;108413;1261;59070;-76
2023/02/01 00:39:42;;;;;;;16.60;3.20;;;;;;;4.94;78.56;100735.13;108415;1262;75930;-76
2023/02/01 00:42:09;;;;;;;14.70;3.20;;;;;;;4.91;78.66;100740.84;108442;1260;70021;-76
2023/02/01 00:44:36;;;;;;;19.40;3.40;;;;;;;4.91;78.86;100728.19;108508;1265;72703;-77
2023/02/01 00:47:03;;;;;;;14.10;3.20;;;;;;;4.92;78.93;100739.89;108527;1265;61628;-76
2023/02/01 00:49:30;;;;;;;18.70;3.20;;;;;;;4.87;78.93;100748.33;108459;1261;61037;-76
2023/02/01 00:51:57;;;;;;;15.40;3.50;;;;;;;4.86;79.07;100738.19;108476;1261;74478;-76
2023/02/01 00:54:24;;;;;;;10.60;2.50;;;;;;;4.88;79.13;100736.83;108534;1261;69470;-76
2023/02/01 00:56:50;;;;;;;14.00;3.00;;;;;;;4.87;79.26;100736.05;108536;1260;73405;-76
2023/02/01 00:59:17;;;;;;;14.60;3.10;;;;;;;4.87;79.27;100728.17;108382;1268;62273;-76
2023/02/01 01:01:44;;;;;;;18.80;3.60;;;;;;;4.88;79.28;100725.29;108507;1261;60615;-76
2023/02/01 01:04:11;;;;;;;18.60;3.60;;;;;;;4.87;79.21;100726.43;108588;1260;74481;-76
2023/02/01 01:06:38;;;;;;;16.80;3.20;;;;;;;4.85;79.07;100722.03;108485;1262;70930;-76
2023/02/01 01:09:07;;;;;;;15.90;3.30;;;;;;;4.86;79.20;100713.88;108525;1261;71031;-76
2023/02/01 01:11:37;;;;;;;18.50;3.20;;;;;;;4.87;79.39;100716.25;108545;1263;60049;-76
2023/02/01 01:14:06;;;;;;;14.00;3.00;;;;;;;4.83;79.51;100720.67;108558;1261;60302;-76
2023/02/01 01:16:33;;;;;;;12.50;2.90;;;;;;;4.78;79.47;100719.50;108569;1261;74739;-76
2023/02/01 01:19:01;;;;;;;16.00;3.60;;;;;;;4.77;79.62;100722.92;108577;1261;70156;-76
2023/02/01 01:21:29;;;;;;;18.40;3.00;;;;;;;4.76;79.72;100721.98;108486;1260;73280;-76
2023/02/01 01:23:56;;;;;;;16.60;3.40;;;;;;;4.76;79.77;100728.66;108559;1265;60194;-76
2023/02/01 01:26:25;;;;;;;18.90;3.20;;;;;;;4.71;79.61;100730.86;108630;1260;60404;-76
2023/02/01 01:28:54;;;;;;;17.00;2.90;;;;;;;4.80;79.50;100730.55;108579;1260;74580;-76
2023/02/01 01:31:22;;;;;;;14.90;2.50;;;;;;;4.83;79.50;100714.34;108494;1260;69966;-76
2023/02/01 01:33:54;;;;;;;14.80;3.30;;;;;;;4.85;79.41;100714.28;108365;1262;72446;-76
2023/02/01 01:36:21;;;;;;;17.80;3.20;;;;;;;4.89;79.30;100712.95;108526;1261;61199;-75
2023/02/01 01:38:48;;;;;;;12.60;2.90;;;;;;;4.89;78.95;100715.73;108614;1261;59613;-75
2023/02/01 01:41:18;;;;;;;14.60;2.80;;;;;;;4.91;78.99;100706.43;108449;1262;74704;-75
2023/02/01 01:43:56;;;;;;;15.10;2.50;;;;;;;4.91;78.95;100708.18;108607;1261;68680;-75
2023/02/01 01:46:28;;;;;;;16.00;2.40;;;;;;;4.93;79.14;100706.30;108622;1261;71502;-75
2023/02/01 01:49:10;;;;;;;14.10;2.80;;;;;;;4.88;79.22;100704.41;108491;1263;61130;-75
2023/02/01 01:51:41;;;;;;;15.90;3.40;;;;;;;4.88;78.92;100705.30;108543;1261;59813;-75
2023/02/01 01:54:17;;;;;;;18.90;3.80;;;;;;;4.90;78.93;100712.20;108508;1261;73300;-75
2023/02/01 01:56:49;;;;;;;16.10;3.00;;;;;;;4.87;78.92;100699.23;108389;1267;71181;-75
2023/02/01 01:59:16;;;;;;;17.20;3.50;;;;;;;4.87;78.80;100698.02;108488;1261;72091;-75
2023/02/01 02:01:43;;;;;;;17.80;3.20;;;;;;;4.86;78.92;100691.34;108573;1260;61032;-75
2023/02/01 02:04:10;;;;;;;16.00;3.20;;;;;;;4.84;78.95;100693.59;108533;1261;60403;-75
2023/02/01 02:06:45;;;;;;;15.90;3.30;;;;;;;4.87;78.78;100689.98;108490;1261;74772;-75
2023/02/01 02:09:12;;;;;;;13.00;3.00;;;;;;;4.89;79.11;100686.45;108447;1261;70831;-75
2023/02/01 02:11:38;;;;;;;15.10;3.00;;;;;;;4.88;78.98;100684.14;108409;1261;71411;-76
2023/02/01 02:14:09;;;;;;;13.80;3.60;;;;;;;4.88;78.92;100694.48;108409;1260;62436;-76
2023/02/01 02:16:59;;;;;;;17.20;3.10;;;;;;;4.86;78.97;100690.08;108580;1261;60104;-76
2023/02/01 02:19:45;;;;;;;14.90;3.20;;;;;;;4.84;79.24;100680.61;108475;1260;72442;-76
2023/02/01 02:22:54;;;;;;;15.60;3.10;;;;;;;4.84;79.17;100681.45;108388;1265;69650;-76
2023/02/01 02:25:57;;;;;;;14.20;2.80;;;;;;;4.84;79.20;100681.09;108496;1260;71287;-76
2023/02/01 02:29:01;;;;;;;16.30;3.10;;;;;;;4.85;79.29;100677.91;108563;1261;59918;-76
2023/02/01 02:31:54;;;;;;;16.00;3.30;;;;;;;4.84;79.16;100668.32;108573;1261;60047;-76
2023/02/01 02:34:32;;;;;;;15.00;3.00;;;;;;;4.87;79.16;100667.75;108606;1261;74051;-76
2023/02/01 02:37:23;;;;;;;18.10;3.90;;;;;;;4.86;79.15;100659.20;108501;1261;71891;-75
2023/02/01 02:39:49;;;;;;;16.80;2.90;;;;;;;4.87;79.02;100644.75;108603;1261;72410;-75
2023/02/01 02:48:32;;;;;;;14.30;3.10;;;;;;;4.86;79.33;100653.23;108566;1260;74738;-76
2023/02/01 03:05:36;;;;;;;16.70;3.90;;;;;;;4.85;79.65;100620.58;108624;1260;71302;-76
2023/02/01 03:08:12;;;;;;;17.90;3.00;;;;;;;4.86;79.61;100617.54;108605;1260;73821;-76
2023/02/01 03:10:48;;;;;;;18.90;3.10;;;;;;;4.88;79.81;100614.71;108581;1260;60019;-76
2023/02/01 03:13:33;;;;;;;14.30;2.90;;;;;;;4.86;79.90;100613.13;108487;1260;59022;-76
2023/02/01 03:16:15;;;;;;;12.60;2.80;;;;;;;4.84;79.61;100618.36;108549;1260;72719;-77
2023/02/01 03:18:50;;;;;;;16.20;3.00;;;;;;;4.85;79.86;100609.21;108535;1260;70046;-76
2023/02/01 03:21:24;;;;;;;18.20;4.00;;;;;;;4.84;79.71;100616.95;108436;1260;72738;-77
2023/02/01 03:23:53;;;;;;;15.60;3.10;;;;;;;4.85;79.82;100599.38;108578;1260;60910;-76
2023/02/01 03:26:21;;;;;;;14.30;3.20;;;;;;;4.85;79.94;100602.90;108563;1260;58875;-76
2023/02/01 03:28:55;;;;;;;16.60;3.40;;;;;;;4.85;79.81;100594.95;108638;1260;73513;-76
2023/02/01 03:31:23;;;;;;;14.50;3.30;;;;;;;4.86;79.86;100595.77;108476;1263;70087;-76
2023/02/01 03:33:51;;;;;;;11.10;3.30;;;;;;;4.87;79.97;100580.99;108504;1260;71554;-76
2023/02/01 03:36:28;;;;;;;11.10;2.90;;;;;;;4.85;79.82;100586.39;108599;1260;60106;-76
2023/02/01 03:39:23;;;;;;;15.80;3.00;;;;;;;4.86;79.75;100585.73;108613;1260;60257;-76
2023/02/01 03:41:55;;;;;;;14.90;3.00;;;;;;;4.86;79.80;100587.72;108605;1260;74257;-76
2023/02/01 03:44:31;;;;;;;14.60;2.70;;;;;;;4.87;79.76;100582.75;108616;1260;70203;-76
2023/02/01 03:47:13;;;;;;;13.80;3.00;;;;;;;4.89;80.08;100564.88;108446;1265;213734;-77
2023/02/01 03:49:43;;;;;;;14.60;2.70;;;;;;;4.88;80.13;100568.76;108538;1261;60062;-76
2023/02/01 03:52:15;;;;;;;17.00;3.20;;;;;;;4.90;80.21;100571.10;108486;1261;59606;-76
2023/02/01 03:54:43;;;;;;;10.80;2.50;;;;;;;4.90;80.45;100557.23;108543;1260;75288;-76
2023/02/01 03:57:14;;;;;;;19.50;3.00;;;;;;;4.90;80.62;100562.16;108391;1261;69789;-76
2023/02/01 03:59:44;;;;;;;18.70;3.30;;;;;;;4.89;80.88;100553.64;108483;1260;71507;-76
2023/02/01 04:02:11;;;;;;;13.90;2.90;;;;;;;4.89;80.70;100557.46;108494;1262;60514;-76
2023/02/01 04:04:38;;;;;;;14.60;3.00;;;;;;;4.91;80.84;100548.04;108581;1260;59423;-76
2023/02/01 04:07:05;;;;;;;12.80;2.80;;;;;;;4.92;81.00;100534.46;108669;1260;75662;-76
2023/02/01 04:09:32;;;;;;;15.70;3.00;;;;;;;4.94;81.06;100537.09;108580;1262;71317;-76
2023/02/01 04:11:59;;;;;;;16.50;3.30;;;;;;;4.94;80.94;100529.40;108694;1261;72689;-76
2023/02/01 04:14:25;;;;;;;13.00;3.10;;;;;;;4.97;81.01;100522.26;108761;1260;61036;-76
2023/02/01 04:16:52;;;;;;;14.80;3.20;;;;;;;4.98;81.13;100527.45;108724;1262;59336;-76
2023/02/01 04:19:19;;;;;;;14.10;3.10;;;;;;;4.95;81.24;100523.48;108530;1262;74712;-76
2023/02/01 04:21:46;;;;;;;14.70;3.50;;;;;;;4.97;81.46;100527.17;108772;1260;70096;-76
2023/02/01 04:24:13;;;;;;;13.60;3.40;;;;;;;4.98;81.43;100539.88;108729;1260;72803;-76
2023/02/01 04:26:40;;;;;;;18.00;3.60;;;;;;;4.98;81.30;100538.83;108691;1261;59682;-76
2023/02/01 04:29:09;;;;;;;18.60;4.10;;;;;;;5.01;81.54;100523.59;108721;1261;58829;-76
2023/02/01 04:31:36;;;;;;;11.70;3.10;;;;;;;5.00;81.97;100525.85;108606;1260;74920;-76
2023/02/01 04:34:03;;;;;;;14.70;3.30;;;;;;;4.98;82.67;100518.64;108751;1261;71156;-74
2023/02/01 04:36:30;;;;;;;14.60;3.30;;;;;;;4.94;82.75;100508.67;108715;1261;71487;-77
2023/02/01 04:38:57;;;;;;;11.10;3.60;;;;;;;4.89;83.20;100507.02;108651;1261;60005;-75
2023/02/01 04:41:24;;;;;;;13.40;3.20;;;;;;;4.87;83.07;100502.49;108624;1261;59389;-75
2023/02/01 04:43:52;;;;;;;15.20;3.50;;;;;;;4.86;83.01;100508.56;108717;1261;74657;-75
2023/02/01 04:46:19;;;;;;;16.50;3.30;;;;;;;4.86;83.12;100506.06;108726;1262;70988;-75
2023/02/01 04:48:46;;;;;;;15.60;3.30;;;;;;;4.87;82.84;100491.80;108531;1261;71690;-75
2023/02/01 04:51:13;;;;;;;15.50;3.40;;;;;;;4.88;82.68;100483.49;108619;1264;59781;-75
2023/02/01 04:53:40;;;;;;;15.00;3.50;;;;;;;4.89;82.25;100483.56;108743;1260;59600;-75
2023/02/01 04:56:07;;;;;;;15.40;3.30;;;;;;;4.92;81.98;100480.87;108747;1260;73625;-75
2023/02/01 04:58:34;;;;;;;17.40;3.90;;;;;;;4.93;82.63;100474.98;108595;1261;71355;-75
2023/02/01 05:01:06;;;;;;;13.60;3.50;;;;;;;4.91;83.57;100480.94;108648;1260;71441;-75
2023/02/01 05:03:36;;;;;;;19.70;4.70;;;;;;;4.87;84.85;100483.09;108535;1261;60043;-77
2023/02/01 05:06:04;;;;;;;12.30;3.10;;;;;;;4.72;86.13;100492.16;108623;1262;60417;-77
2023/02/01 05:08:32;;;;;;;13.20;3.30;;;;;;;4.52;87.93;100492.20;108588;1261;73641;-78
2023/02/01 05:10:59;;;;;;;16.40;3.60;;;;;;;4.36;89.17;100481.41;108594;1260;69888;-77
2023/02/01 05:16:11;;;;;;;16.80;3.90;;;;;;;4.14;91.72;100484.13;108797;1260;61032;-79
2023/02/01 05:18:38;;;;;;;16.60;3.90;;;;;;;4.06;92.99;100490.73;108779;1260;59202;-79
2023/02/01 05:21:06;;;;;;;12.50;3.00;;;;;;;4.01;93.54;100481.09;108660;1260;73149;-78
2023/02/01 05:24:09;;;;;;;14.50;3.50;;;;;;;3.97;94.14;100478.62;108659;1262;71159;-78
2023/02/01 05:26:19;;;;;;;15.10;4.50;;;;;;;3.91;95.14;100477.11;108746;1261;71691;-77
2023/02/01 05:28:47;;;;;;;18.00;4.00;;;;;;;3.86;95.79;100463.89;108625;1260;60155;-77
2023/02/01 05:31:14;;;;;;;19.90;4.00;;;;;;;3.81;96.43;100474.61;108636;1260;59052;-77
2023/02/01 05:33:41;;;;;;;12.40;3.20;;;;;;;3.79;96.93;100481.34;108765;1261;74203;-78
2023/02/01 05:36:08;;;;;;;18.40;4.60;;;;;;;3.77;97.75;100485.52;108546;1260;72801;-78
2023/02/01 05:38:35;;;;;;;17.20;3.80;;;;;;;3.75;97.84;100481.12;108716;1260;72402;-77
2023/02/01 05:41:02;;;;;;;17.70;4.20;;;;;;;3.75;98.21;100483.60;108733;1260;62216;-77
2023/02/01 05:43:29;;;;;;;17.30;4.00;;;;;;;3.74;98.14;100476.31;108746;1260;61588;-77
2023/02/01 05:45:56;;;;;;;14.40;3.70;;;;;;;3.76;97.75;100469.19;108739;1260;74558;-76
2023/02/01 05:48:23;;;;;;;16.10;3.90;;;;;;;3.77;97.60;100459.27;108765;1261;70114;-76
2023/02/01 05:50:50;;;;;;;14.30;4.00;;;;;;;3.77;97.42;100455.95;108681;1260;71273;-76
2023/02/01 05:53:17;;;;;;;15.90;4.10;;;;;;;3.78;97.36;100459.36;108558;1260;59667;-76
2023/02/01 05:55:44;;;;;;;19.50;3.80;;;;;;;3.79;97.45;100453.01;108642;1262;60110;-76
2023/02/01 05:58:12;;;;;;;18.00;3.70;;;;;;;3.82;97.09;100449.34;108711;1260;72541;-76
2023/02/01 06:00:39;;;;;;;15.00;3.90;;;;;;;3.86;96.71;100450.96;108779;1260;71309;-76
2023/02/01 06:03:06;;;;;;;15.60;4.30;;;;;;;3.89;96.43;100441.95;108540;1262;71978;-76
2023/02/01 06:05:33;;;;;;;14.90;3.80;;;;;;;3.95;95.54;100430.75;108717;1261;61114;-77
2023/02/01 06:08:00;;;;;;;20.40;4.20;;;;;;;3.99;95.20;100429.42;108744;1261;58954;-77
2023/02/01 06:10:27;;;;;;;15.30;3.80;;;;;;;4.06;94.71;100439.38;108768;1260;74763;-77
2023/02/01 06:12:54;;;;;;;17.10;3.80;;;;;;;4.10;94.67;100430.45;108757;1260;70276;-76
2023/02/01 06:15:21;;;;;;;14.20;3.30;;;;;;;4.12;94.06;100431.10;108602;1260;73610;-76
2023/02/01 06:17:47;;;;;;;12.60;3.20;;;;;;;4.15;93.47;100428.55;108753;1260;58955;-76
2023/02/01 06:20:15;;;;;;;12.10;3.20;;;;;;;4.19;93.30;100432.62;108654;1260;59500;-76
2023/02/01 06:22:42;;;;;;;10.50;3.00;;;;;;;4.21;93.14;100419.60;108816;1260;74097;-75
2023/02/01 06:25:10;;;;;;;10.70;3.00;;;;;;;4.25;92.82;100421.90;108602;1262;69965;-75
2023/02/01 06:27:37;;;;;;;11.10;3.10;;;;;;;4.28;92.82;100419.00;108733;1260;72119;-75
2023/02/01 06:30:05;;;;;;;8.80;2.90;;;;;;;4.30;92.54;100415.11;108561;1260;59671;-75
2023/02/01 06:32:32;;;;;;;11.70;2.70;;;;;;;4.31;92.68;100416.77;108596;1262;60109;-75
2023/02/01 06:35:00;;;;;;;18.70;3.50;;;;;;;4.33;92.81;100416.73;108755;1261;73355;-76
2023/02/01 06:37:29;;;;;;;13.50;3.00;;;;;;;4.33;92.82;100423.04;108804;1260;69814;-75
2023/02/01 06:39:56;;;;;;;9.70;2.80;;;;;;;4.33;92.99;100423.02;108615;1260;72664;-76
2023/02/01 06:42:23;;;;;;;13.10;2.90;;;;;;;4.34;92.80;100428.03;108585;1260;59782;-76
2023/02/01 06:44:50;;;;;;;9.60;2.40;;;;;;;4.33;92.90;100439.56;108619;1260;61138;-78
2023/02/01 06:47:17;;;;;;;12.20;2.90;;;;;;;4.32;93.14;100434.02;108760;1260;74640;-78
2023/02/01 06:49:43;;;;;;;9.00;2.50;;;;;;;4.31;93.42;100452.86;108638;1260;69659;-78
2023/02/01 06:52:11;;;;;;;12.30;2.90;;;;;;;4.29;93.19;100454.77;108767;1260;72963;-76
2023/02/01 06:54:37;;;;;;;9.10;2.30;;;;;;;4.29;92.95;100443.55;108644;1262;59652;-77
2023/02/01 06:57:04;;;;;;;12.10;2.40;;;;;;;4.30;93.39;100439.39;108644;1260;60223;-77
2023/02/01 06:59:32;;;;;;;8.20;2.40;;;;;;;4.28;93.71;100457.45;108760;1260;73212;-77
2023/02/01 07:01:59;;;;;;;11.00;2.80;;;;;;;4.25;94.35;100454.64;108606;1260;71103;-77
2023/02/01 07:04:26;;;;;;;8.90;2.40;;;;;;;4.19;95.16;100455.98;108671;1260;71267;-78
2023/02/01 07:06:53;;;;;;;9.30;2.70;;;;;;;4.16;95.61;100459.63;108760;1260;62672;-78
2023/02/01 07:09:20;;;;;;;8.70;2.70;;;;;;;4.15;95.39;100452.35;108678;1261;60423;-78
2023/02/01 07:11:47;;;;;;;9.90;2.50;;;;;;;4.16;94.99;100474.38;108574;1260;75768;-78
2023/02/01 07:14:14;;;;;;;10.50;2.60;;;;;;;4.17;95.18;100455.84;108564;1260;71173;-77
2023/02/01 07:16:41;;;;;;;9.80;2.20;;;;;;;4.18;95.01;100473.25;108785;1260;72385;-77
2023/02/01 07:19:08;;;;;;;8.80;2.80;;;;;;;4.21;94.65;100477.02;108786;1261;60951;-78
2023/02/01 07:21:35;;;;;;;11.70;2.90;;;;;;;4.23;94.35;100461.95;108634;1262;59022;-78
2023/02/01 07:24:03;;;;;;;12.80;2.90;;;;;;;4.25;94.22;100466.46;108738;1260;74690;-78
2023/02/01 07:26:30;;;;;;;13.10;3.20;;;;;;;4.28;94.02;100466.71;108760;1260;71285;-78
2023/02/01 07:28:58;;;;;;;9.60;2.50;;;;;;;4.30;94.06;100469.95;108663;1260;73145;-78
2023/02/01 07:31:26;;;;;;;12.60;2.70;;;;;;;4.31;93.98;100469.27;108654;1262;60925;-78
2023/02/01 07:33:53;;;;;;;14.20;3.40;;;;;;;4.31;94.15;100472.92;108767;1261;60369;-78
2023/02/01 07:36:20;;;;;;;11.10;2.90;;;;;;;4.33;94.13;100468.77;108760;1260;75242;-78
2023/02/01 07:38:47;;;;;;;16.10;3.10;;;;;;;4.36;93.93;100476.88;108796;1260;69757;-79
2023/02/01 07:41:15;;;;;;;14.50;2.90;;;;;;;4.38;93.66;100472.50;108743;1260;71613;-79
2023/02/01 07:43:42;;;;;;;15.00;3.40;;;;;;;4.43;93.15;100472.89;108762;1260;60957;-79
2023/02/01 07:46:10;;;;;;;15.90;3.10;;;;;;;4.49;92.79;100482.20;108725;1260;60080;-80
2023/02/01 07:48:38;;;;;;;14.00;3.60;;;;;;;4.54;92.73;100471.06;108627;1260;72709;-80
2023/02/01 07:51:08;;;;;;;13.10;3.50;;;;;;;4.58;92.31;100472.42;108846;1261;71023;-80
2023/02/01 07:53:36;;;;;;;13.20;3.00;;;;;;;4.64;91.95;100470.33;108650;1262;72254;-80
2023/02/01 07:56:04;;;;;;;17.10;3.10;;;;;;;4.68;91.53;100480.80;108762;1260;60738;-79
2023/02/01 07:58:30;;;;;;;14.80;3.00;;;;;;;4.70;91.06;100469.15;108640;1260;59212;-80
2023/02/01 08:03:43;;;;;;;14.30;2.60;;;;;;;4.79;90.18;100474.30;108771;1261;69583;-79
2023/02/01 08:06:10;;;;;;;12.60;3.00;;;;;;;4.83;89.91;100462.41;108737;1261;70221;-79
2023/02/01 08:08:37;;;;;;;11.10;2.40;;;;;;;4.84;89.33;100473.46;108664;1260;59951;-79
2023/02/01 08:11:06;;;;;;;11.70;3.00;;;;;;;4.86;89.32;100457.34;108748;1261;59077;-78
2023/02/01 08:13:34;;;;;;;18.70;3.70;;;;;;;4.87;89.04;100461.11;108754;1260;73541;-78
2023/02/01 08:16:04;;;;;;;13.70;3.10;;;;;;;4.86;88.63;100455.43;108765;1260;71284;-78
2023/02/01 08:18:32;;;;;;;10.60;2.80;;;;;;;4.85;88.64;100477.96;108552;1262;71971;-78
2023/02/01 08:21:04;;;;;;;13.60;2.40;;;;;;;4.86;88.77;100474.91;108763;1260;59656;-79
2023/02/01 08:23:31;;;;;;;13.50;2.90;;;;;;;4.86;88.48;100501.34;108734;1260;61020;-79
2023/02/01 08:26:14;;;;;;;12.20;3.20;;;;;;;4.90;88.64;100499.77;108626;1260;74497;-79
2023/02/01 08:28:44;;;;;;;12.90;2.70;;;;;;;4.93;88.72;100502.65;108712;1260;70921;-79
2023/02/01 08:31:16;;;;;;;14.40;3.00;;;;;;;4.99;88.65;100519.59;108657;1262;71087;-79
2023/02/01 08:33:48;;;;;;;14.00;2.50;;;;;;;5.02;88.95;100529.33;108689;1261;59954;-79
2023/02/01 08:36:15;;;;;;;14.60;2.80;;;;;;;5.02;89.57;100526.86;108803;1260;60039;-80
2023/02/01 08:38:43;;;;;;;11.90;2.60;;;;;;;5.02;89.24;100525.31;108662;1261;72618;-79
2023/02/01 08:41:15;;;;;;;9.70;2.70;;;;;;;5.04;88.91;100527.23;108643;1262;69365;-79
2023/02/01 08:43:42;;;;;;;14.20;3.30;;;;;;;5.03;88.84;100533.64;108641;1261;73038;-80
2023/02/01 08:46:10;;;;;;;13.60;3.10;;;;;;;5.05;88.98;100510.14;108713;1261;59645;-80
2023/02/01 08:48:37;;;;;;;19.10;3.40;;;;;;;5.06;88.99;100503.36;108733;1262;59313;-80
2023/02/01 08:51:07;;;;;;;12.90;2.60;;;;;;;5.08;88.61;100502.13;108785;1260;73972;-80
2023/02/01 08:53:34;;;;;;;15.10;3.00;;;;;;;5.12;88.16;100503.11;108718;1262;68785;-80
2023/02/01 08:56:00;;;;;;;10.70;2.60;;;;;;;5.15;87.66;100519.83;108560;1260;72433;-80
2023/02/01 08:58:27;;;;;;;13.10;2.90;;;;;;;5.21;87.48;100508.26;108755;1260;60028;-79
2023/02/01 09:00:55;;;;;;;10.10;2.50;;;;;;;5.32;86.96;100502.17;108561;1262;59714;-79
2023/02/01 09:03:21;;;;;;;11.70;2.60;;;;;;;5.43;86.27;100486.52;108563;1262;73185;-79
2023/02/01 09:05:48;;;;;;;11.50;3.10;;;;;;;5.50;85.57;100491.70;108659;1260;69642;-77
2023/02/01 09:08:16;;;;;;;15.20;3.00;;;;;;;5.55;84.72;100501.23;108769;1260;72408;-77
2023/02/01 09:10:42;;;;;;;9.70;2.60;;;;;;;5.60;83.92;100523.29;108739;1260;60000;-77
2023/02/01 09:13:09;;;;;;;11.90;2.60;;;;;;;5.65;83.65;100511.41;108757;1262;58924;-79
2023/02/01 09:15:37;;;;;;;11.60;2.30;;;;;;;5.71;83.02;100522.29;108648;1261;73692;-77
2023/02/01 09:18:04;;;;;;;12.00;2.40;;;;;;;5.80;82.63;100516.70;108685;1261;69851;-77
2023/02/01 09:20:31;;;;;;;10.40;2.30;;;;;;;5.86;81.77;100511.84;108788;1260;73055;-77
2023/02/01 09:22:58;;;;;;;13.20;2.80;;;;;;;5.94;81.46;100506.17;108767;1260;59738;-77
2023/02/01 09:25:25;;;;;;;9.40;2.20;;;;;;;6.04;81.46;100512.05;108626;1262;60718;-77
2023/02/01 09:27:52;;;;;;;9.70;2.80;;;;;;;6.07;80.17;100529.49;108763;1261;73450;-77
2023/02/01 09:30:19;;;;;;;9.80;2.30;;;;;;;6.12;80.39;100522.33;108778;1260;68772;-78
2023/02/01 09:32:45;;;;;;;12.90;2.20;;;;;;;6.16;79.90;100519.20;108758;1260;71882;-78
2023/02/01 09:35:12;;;;;;;10.90;2.90;;;;;;;6.21;79.79;100514.17;108655;1262;59673;-77
2023/02/01 09:37:40;;;;;;;12.90;2.60;;;;;;;6.21;80.03;100511.53;108759;1261;60100;-77
2023/02/01 09:40:10;;;;;;;10.20;2.40;;;;;;;6.27;79.94;100516.38;108802;1261;73188;-77
2023/02/01 09:42:48;;;;;;;9.50;2.30;;;;;;;6.31;79.34;100524.18;108641;1260;69741;-77
2023/02/01 09:45:37;;;;;;;10.80;2.60;;;;;;;6.31;78.56;100543.87;108729;1260;70240;-77
2023/02/01 09:48:14;;;;;;;8.10;2.30;;;;;;;6.34;78.60;100521.48;108674;1260;61268;-78
2023/02/01 09:50:45;;;;;;;9.50;2.60;;;;;;;6.35;78.33;100536.09;108570;1261;58922;-79
2023/02/01 09:53:30;;;;;;;9.80;2.10;;;;;;;6.41;78.64;100531.97;108691;1262;74443;-79
2023/02/01 09:56:06;;;;;;;10.60;2.30;;;;;;;6.43;77.91;100531.13;108793;1260;71486;-79
2023/02/01 09:58:40;;;;;;;13.30;2.70;;;;;;;6.41;77.92;100522.30;108595;1260;71265;-79
2023/02/01 10:01:19;;;;;;;8.70;2.60;;;;;;;6.44;78.11;100522.34;108688;1260;61232;-76
2023/02/01 10:03:46;;;;;;;8.10;2.00;;;;;;;6.46;77.78;100528.21;108781;1260;59266;-77
2023/02/01 10:06:32;;;;;;;9.80;2.20;;;;;;;6.46;78.10;100529.61;108600;1262;73530;-77
2023/02/01 10:09:37;;;;;;;10.20;2.50;;;;;;;6.51;77.56;100524.66;108775;1261;71583;-77
2023/02/01 10:12:22;;;;;;;15.20;2.90;;;;;;;6.54;77.23;100528.26;108723;1260;73254;-77
2023/02/01 10:15:20;;;;;;;11.50;2.40;;;;;;;6.59;77.44;100537.96;108587;1262;61484;-78
2023/02/01 10:18:12;;;;;;;10.10;2.30;;;;;;;6.58;77.03;100517.20;108604;1260;59153;-77
2023/02/01 10:21:03;;;;;;;15.40;3.10;;;;;;;6.62;76.98;100516.05;108714;1260;73416;-77
2023/02/01 10:23:58;;;;;;;11.50;2.50;;;;;;;6.68;77.41;100520.66;108799;1260;71296;-77
2023/02/01 10:26:42;;;;;;;11.10;2.50;;;;;;;6.68;77.05;100524.96;108733;1260;72491;-77
2023/02/01 10:29:18;;;;;;;13.90;2.80;;;;;;;6.74;76.67;100521.52;108734;1260;59651;-77
2023/02/01 10:31:45;;;;;;;12.60;2.60;;;;;;;6.79;76.63;100513.98;108753;1261;59603;-77
2023/02/01 10:34:22;;;;;;;10.40;2.80;;;;;;;6.77;76.34;100525.76;108661;1261;74899;-77
2023/02/01 10:36:59;;;;;;;12.90;2.90;;;;;;;6.82;76.74;100505.92;108663;1259;70999;-76
2023/02/01 10:39:26;;;;;;;9.40;2.30;;;;;;;6.88;76.66;100508.36;108727;1261;71294;-76
2023/02/01 10:41:55;;;;;;;9.50;2.00;;;;;;;6.89;75.63;100513.70;108795;1261;60533;-76
2023/02/01 10:44:28;;;;;;;9.00;2.40;;;;;;;6.89;75.78;100503.45;108661;1262;58992;-78
2023/02/01 10:46:55;;;;;;;12.30;2.60;;;;;;;6.87;75.81;100508.25;108667;1259;74736;-78
2023/02/01 10:49:33;;;;;;;10.70;2.70;;;;;;;6.85;75.21;100512.14;108765;1260;70593;-78
2023/02/01 10:52:12;;;;;;;12.30;2.60;;;;;;;6.86;75.11;100500.80;108748;1260;71257;-78
2023/02/01 10:54:39;;;;;;;8.40;2.40;;;;;;;6.82;75.36;100505.23;108597;1260;60302;-76
2023/02/01 10:57:20;;;;;;;12.70;2.50;;;;;;;6.81;74.95;100510.29;108674;1259;59164;-78
2023/02/01 10:59:47;;;;;;;11.80;2.90;;;;;;;6.79;75.03;100513.70;108719;1262;74475;-79
2023/02/01 11:02:35;;;;;;;10.30;2.10;;;;;;;6.78;75.33;100502.83;108608;1262;69105;-79
2023/02/01 11:05:05;;;;;;;13.80;2.50;;;;;;;6.70;75.04;100511.51;108761;1261;72923;-78
2023/02/01 11:07:32;;;;;;;9.70;2.70;;;;;;;6.71;75.16;100510.06;108709;1260;61018;-76
2023/02/01 11:09:59;;;;;;;12.40;2.80;;;;;;;6.67;74.98;100492.15;108667;1262;60119;-76
2023/02/01 11:12:37;;;;;;;14.90;2.50;;;;;;;6.67;75.16;100476.02;108647;1261;76650;-75
2023/02/01 11:15:19;;;;;;;10.80;2.90;;;;;;;6.66;75.06;100489.98;108644;1261;70069;-74
2023/02/01 11:17:51;;;;;;;12.60;2.70;;;;;;;6.69;75.60;100468.39;108734;1260;72742;-74
2023/02/01 11:20:23;;;;;;;14.90;2.60;;;;;;;6.69;75.37;100472.98;108727;1260;61952;-76
2023/02/01 11:22:56;;;;;;;9.10;2.50;;;;;;;6.70;75.24;100461.52;108678;1260;60631;-75
2023/02/01 11:25:24;;;;;;;16.40;2.80;;;;;;;6.71;75.18;100465.55;108617;1260;73208;-75
2023/02/01 11:27:55;;;;;;;9.50;2.70;;;;;;;6.71;74.87;100462.59;108575;1260;71571;-74
2023/02/01 11:30:34;;;;;;;9.40;2.10;;;;;;;6.68;74.42;100471.15;108544;1261;71171;-78
2023/02/01 11:33:03;;;;;;;8.00;2.30;;;;;;;6.68;74.48;100451.16;108679;1261;59116;-75
2023/02/01 11:35:33;;;;;;;10.60;2.40;;;;;;;6.66;74.81;100447.69;108584;1260;60544;-75
2023/02/01 11:38:00;;;;;;;11.90;2.50;;;;;;;6.67;74.68;100446.69;108777;1260;75900;-75
2023/02/01 11:40:36;;;;;;;10.90;2.50;;;;;;;6.66;74.11;100451.34;108699;1260;71146;-75
2023/02/01 11:43:18;;;;;;;9.40;2.40;;;;;;;6.72;74.17;100437.38;108739;1260;71140;-74
2023/02/01 11:45:56;;;;;;;12.20;2.20;;;;;;;6.81;73.41;100433.30;108718;1261;59741;-74
2023/02/01 11:48:25;;;;;;;11.80;2.20;;;;;;;6.96;72.96;100410.82;108547;1261;60459;-74
2023/02/01 11:51:11;;;;;;;7.80;2.20;;;;;;;7.07;72.47;100408.14;108635;1262;74747;-74
2023/02/01 11:53:56;;;;;;;12.80;2.90;;;;;;;7.20;71.87;100397.04;108774;1260;69159;-75
2023/02/01 11:56:44;;;;;;;10.00;2.10;;;;;;;7.40;71.60;100401.02;108721;1262;71495;-75
2023/02/01 11:59:23;;;;;;;11.00;2.80;;;;;;;7.47;72.16;100380.39;108631;1260;62461;-75
2023/02/01 12:02:09;;;;;;;11.00;2.40;;;;;;;7.45;71.44;100382.05;108570;1260;59773;-75